Time;durP1;ratioP1;P1;durP2;ratioP2;P2;SDS_P1;SDS_P2;PMS_P1;PMS_P2;Temp;Humidity;BMP_temperature;BMP_pressure;BME280_temperature;BME280_humidity;BME280_pressure;Samples;Min_cycle;Max_cycle;Signal;HPM_P1;HPM_P2
2023/08/05 00:01:17;;;;;;;2.63;1.30;;;15.40;99.90;;;;;;4983236;28;20073;-94
2023/08/05 00:03:43;;;;;;;2.85;1.30;;;15.40;99.90;;;;;;4984556;28;20034;-95
2023/08/05 00:06:12;;;;;;;2.00;1.10;;;15.40;99.90;;;;;;4966913;28;20048;-95
2023/08/05 00:08:38;;;;;;;4.47;1.58;;;15.40;99.90;;;;;;5001264;28;20524;-95
2023/08/05 00:11:03;;;;;;;3.33;1.20;;;15.40;99.90;;;;;;4999651;28;20069;-94
2023/08/05 00:13:34;;;;;;;3.45;1.40;;;15.30;99.90;;;;;;4983367;28;20038;-95
2023/08/05 00:16:01;;;;;;;4.40;1.40;;;15.40;99.90;;;;;;5000147;28;20114;-94
2023/08/05 00:18:27;;;;;;;5.05;1.58;;;15.40;99.90;;;;;;5000776;28;20045;-94
2023/08/05 00:20:53;;;;;;;3.95;1.80;;;15.40;99.90;;;;;;4982551;28;20049;-95
2023/08/05 00:23:19;;;;;;;3.30;2.00;;;15.40;99.90;;;;;;4990714;28;20029;-95
2023/08/05 00:25:45;;;;;;;4.00;1.48;;;15.40;99.90;;;;;;4990022;28;20041;-95
2023/08/05 00:28:11;;;;;;;3.58;1.60;;;15.30;99.90;;;;;;4999339;28;20048;-95
2023/08/05 00:30:37;;;;;;;3.70;1.50;;;15.40;99.90;;;;;;4967071;28;20037;-95
2023/08/05 00:33:03;;;;;;;2.35;1.40;;;15.30;99.90;;;;;;5006233;28;20119;-95
2023/08/05 00:35:29;;;;;;;3.22;1.30;;;15.30;99.90;;;;;;4997777;28;20046;-95
2023/08/05 00:37:55;;;;;;;2.83;1.50;;;15.30;99.90;;;;;;4962357;28;20052;-94
2023/08/05 00:40:21;;;;;;;3.17;1.90;;;15.30;99.90;;;;;;4967114;28;20127;-94
2023/08/05 00:42:47;;;;;;;2.47;1.30;;;15.30;99.90;;;;;;5001773;28;20044;-94
2023/08/05 00:45:13;;;;;;;3.47;1.50;;;15.30;99.90;;;;;;4977649;28;20476;-95
2023/08/05 00:47:39;;;;;;;2.50;1.70;;;15.40;99.90;;;;;;4982580;28;20037;-94
2023/08/05 00:50:06;;;;;;;4.93;1.80;;;15.30;99.90;;;;;;4996425;28;20038;-96
2023/08/05 00:52:32;;;;;;;3.42;1.70;;;15.30;99.90;;;;;;4974649;28;20460;-95
2023/08/05 00:54:57;;;;;;;3.30;1.73;;;15.20;99.90;;;;;;4998586;28;20048;-94
2023/08/05 00:57:24;;;;;;;3.03;1.80;;;15.30;99.90;;;;;;4977149;28;20084;-94
2023/08/05 00:59:50;;;;;;;3.42;1.48;;;15.30;99.90;;;;;;4987020;28;20044;-94
2023/08/05 01:02:18;;;;;;;3.30;1.85;;;15.30;99.90;;;;;;4953947;28;20037;-94
2023/08/05 01:04:44;;;;;;;4.13;1.65;;;15.30;99.90;;;;;;4998861;28;20092;-94
2023/08/05 01:07:12;;;;;;;2.72;1.67;;;15.30;99.90;;;;;;5000246;28;20042;-94
2023/08/05 01:09:38;;;;;;;4.20;1.60;;;15.30;99.90;;;;;;4997466;28;20038;-93
2023/08/05 01:12:04;;;;;;;1.67;1.45;;;15.20;99.90;;;;;;5004184;28;20044;-94
2023/08/05 01:14:31;;;;;;;4.32;1.88;;;15.20;99.90;;;;;;4993442;28;20052;-94
2023/08/05 01:16:57;;;;;;;2.30;1.58;;;15.00;99.90;;;;;;4991589;28;20484;-94
2023/08/05 01:19:25;;;;;;;2.95;1.90;;;15.10;99.90;;;;;;4967348;28;20052;-94
2023/08/05 01:22:06;;;;;;;3.42;1.80;;;15.30;99.90;;;;;;5005552;28;20040;-94
2023/08/05 01:24:49;;;;;;;3.08;1.73;;;15.20;99.90;;;;;;4994196;28;20447;-95
2023/08/05 01:27:15;;;;;;;3.28;1.50;;;15.20;99.90;;;;;;4989913;28;20120;-94
2023/08/05 01:29:40;;;;;;;7.00;1.75;;;15.20;99.90;;;;;;4990916;28;20172;-94
2023/08/05 01:32:07;;;;;;;2.97;1.63;;;15.10;99.90;;;;;;4965965;28;20044;-94
2023/08/05 01:34:33;;;;;;;5.30;1.92;;;15.10;99.90;;;;;;4996346;28;20491;-94
2023/08/05 01:36:59;;;;;;;2.05;1.45;;;15.00;99.90;;;;;;5003193;28;20049;-94
2023/08/05 01:39:25;;;;;;;3.00;1.63;;;15.00;99.90;;;;;;4977404;28;20061;-94
2023/08/05 01:41:50;;;;;;;5.40;1.77;;;14.90;99.90;;;;;;4990280;28;20064;-94
2023/08/05 01:44:16;;;;;;;3.30;1.80;;;14.90;99.90;;;;;;4978416;28;20082;-94
2023/08/05 01:46:42;;;;;;;3.67;1.50;;;14.80;99.90;;;;;;4998023;28;20041;-94
2023/08/05 01:49:08;;;;;;;3.38;2.00;;;14.70;99.90;;;;;;4998080;28;20037;-94
2023/08/05 01:51:33;;;;;;;3.28;1.85;;;14.70;99.90;;;;;;4981279;28;20377;-94
2023/08/05 01:53:59;;;;;;;5.20;1.60;;;14.60;99.90;;;;;;4993182;28;20049;-94
2023/08/05 01:56:25;;;;;;;2.90;1.85;;;14.50;99.90;;;;;;4974539;28;20127;-94
2023/08/05 01:58:51;;;;;;;5.13;2.00;;;14.50;99.90;;;;;;4997625;28;20547;-95
2023/08/05 02:01:16;;;;;;;2.20;2.00;;;14.50;99.90;;;;;;4982762;28;20393;-94
2023/08/05 02:03:42;;;;;;;3.15;1.85;;;14.30;99.90;;;;;;4997030;28;20033;-93
2023/08/05 02:06:08;;;;;;;2.95;1.88;;;14.40;99.90;;;;;;4997758;28;20044;-93
2023/08/05 02:08:34;;;;;;;2.63;1.95;;;14.40;99.90;;;;;;5000173;28;20039;-94
2023/08/05 02:10:59;;;;;;;5.93;1.73;;;14.30;99.90;;;;;;4998088;28;20037;-94
2023/08/05 02:13:25;;;;;;;2.65;1.77;;;14.30;99.90;;;;;;4979519;28;20067;-94
2023/08/05 02:15:51;;;;;;;5.93;2.00;;;14.30;99.90;;;;;;4996808;28;20037;-93
2023/08/05 02:18:17;;;;;;;4.70;1.95;;;14.20;99.90;;;;;;4980386;28;20041;-94
2023/08/05 02:20:42;;;;;;;3.97;1.85;;;14.20;99.90;;;;;;4979153;28;20044;-94
2023/08/05 02:23:11;;;;;;;4.05;2.00;;;14.20;99.90;;;;;;4997247;28;20081;-95
2023/08/05 02:25:37;;;;;;;4.20;2.92;;;14.20;99.90;;;;;;4997593;28;20141;-94
2023/08/05 02:28:03;;;;;;;3.85;1.90;;;14.20;99.90;;;;;;4997302;28;20127;-94
2023/08/05 02:30:28;;;;;;;2.75;1.88;;;14.20;99.90;;;;;;4997491;28;20037;-94
2023/08/05 02:32:55;;;;;;;5.88;2.97;;;;;;;;;;4980093;28;20550;-94
2023/08/05 02:35:20;;;;;;;4.95;1.90;;;14.10;99.90;;;;;;4977914;28;20092;-93
2023/08/05 02:37:46;;;;;;;4.70;1.73;;;14.20;99.90;;;;;;4979864;28;20050;-93
2023/08/05 02:40:12;;;;;;;3.70;2.05;;;14.10;99.90;;;;;;5015136;28;20177;-93
2023/08/05 02:42:38;;;;;;;4.80;2.10;;;14.10;99.90;;;;;;5001943;28;20410;-94
2023/08/05 02:45:05;;;;;;;3.00;1.80;;;14.10;99.90;;;;;;4985189;28;20048;-94
2023/08/05 02:47:31;;;;;;;2.67;1.67;;;14.00;99.90;;;;;;5004108;28;20107;-95
2023/08/05 02:49:57;;;;;;;4.25;2.03;;;14.00;99.90;;;;;;5000787;28;20073;-94
2023/08/05 02:52:23;;;;;;;5.90;1.95;;;13.90;99.90;;;;;;5002238;28;20077;-94
2023/08/05 02:54:48;;;;;;;3.50;1.90;;;13.90;99.90;;;;;;4992573;28;20505;-95
2023/08/05 02:57:14;;;;;;;3.35;1.73;;;13.90;99.90;;;;;;5001303;28;20041;-95
2023/08/05 02:59:40;;;;;;;2.30;1.88;;;13.80;99.90;;;;;;4977275;28;20056;-95
2023/08/05 03:02:06;;;;;;;3.90;2.05;;;13.80;99.90;;;;;;5001650;28;20120;-94
2023/08/05 03:04:31;;;;;;;4.57;1.85;;;13.80;99.90;;;;;;4970349;28;20048;-94
2023/08/05 03:06:57;;;;;;;5.35;2.30;;;13.80;99.90;;;;;;4987347;28;20045;-94
2023/08/05 03:09:26;;;;;;;2.75;2.00;;;13.80;99.90;;;;;;5005816;28;20081;-94
2023/08/05 03:11:52;;;;;;;3.83;2.20;;;13.80;99.90;;;;;;5003175;28;20041;-94
2023/08/05 03:14:17;;;;;;;5.35;2.22;;;13.80;99.90;;;;;;5006935;28;20107;-94
2023/08/05 03:16:43;;;;;;;4.97;2.22;;;13.80;99.90;;;;;;5005854;28;20120;-93
2023/08/05 03:19:09;;;;;;;4.22;2.00;;;13.70;99.90;;;;;;5019272;28;20037;-94
2023/08/05 03:21:35;;;;;;;4.28;1.98;;;14.10;99.90;;;;;;4984832;28;20187;-95
2023/08/05 03:24:00;;;;;;;2.90;2.20;;;13.80;99.90;;;;;;4992373;28;20037;-93
2023/08/05 03:26:26;;;;;;;4.97;2.35;;;13.80;99.90;;;;;;4983552;28;20049;-94
2023/08/05 03:28:52;;;;;;;6.00;2.38;;;13.80;99.90;;;;;;4968236;28;20045;-94
2023/08/05 03:31:18;;;;;;;5.25;2.40;;;13.80;99.90;;;;;;4984365;28;20042;-94
2023/08/05 03:33:43;;;;;;;5.95;2.17;;;13.80;99.90;;;;;;5000098;28;20069;-94
2023/08/05 03:36:09;;;;;;;3.63;2.22;;;13.90;99.90;;;;;;4989222;28;20050;-94
2023/08/05 03:38:35;;;;;;;3.08;2.05;;;13.90;99.90;;;;;;4999632;28;20128;-94
2023/08/05 03:41:04;;;;;;;4.72;2.13;;;13.90;99.90;;;;;;4970738;28;20095;-94
2023/08/05 03:43:30;;;;;;;4.68;2.10;;;13.90;99.90;;;;;;4975279;28;20521;-94
2023/08/05 03:45:56;;;;;;;2.83;1.83;;;13.90;99.90;;;;;;4988563;28;20088;-94
2023/08/05 03:48:22;;;;;;;3.03;1.80;;;13.90;99.90;;;;;;4986211;28;20484;-94
2023/08/05 03:50:47;;;;;;;3.67;2.00;;;14.00;99.90;;;;;;5000186;28;20103;-94
2023/08/05 03:53:13;;;;;;;4.30;1.92;;;14.00;99.90;;;;;;4999743;28;20036;-93
2023/08/05 03:55:39;;;;;;;5.07;2.22;;;14.00;99.90;;;;;;5004015;28;20049;-93
2023/08/05 03:58:07;;;;;;;4.43;2.13;;;14.00;99.90;;;;;;5000729;28;20037;-93
2023/08/05 04:00:34;;;;;;;4.40;2.00;;;14.00;99.90;;;;;;4971279;28;20045;-93
2023/08/05 04:03:00;;;;;;;;;;;13.90;99.90;;;;;;4998915;28;20485;-93
2023/08/05 04:05:26;;;;;;;2.60;1.60;;;14.10;99.90;;;;;;4995554;28;19928;-93
2023/08/05 04:07:53;;;;;;;3.25;1.80;;;14.10;99.90;;;;;;4997441;28;20095;-93
2023/08/05 04:10:22;;;;;;;5.78;2.00;;;14.10;99.90;;;;;;4998831;28;20044;-92
2023/08/05 04:12:48;;;;;;;3.85;1.90;;;;;;;;;;4983057;28;20629;-93
2023/08/05 04:15:14;;;;;;;4.28;1.98;;;14.10;99.90;;;;;;4998400;28;20068;-93
2023/08/05 04:17:42;;;;;;;4.60;1.80;;;14.10;99.90;;;;;;4979776;28;20033;-90
2023/08/05 04:20:08;;;;;;;3.45;2.08;;;14.10;99.90;;;;;;4999630;28;20123;-92
2023/08/05 04:22:35;;;;;;;3.33;1.75;;;14.10;99.90;;;;;;4973105;28;20045;-93
2023/08/05 04:25:01;;;;;;;;;;;14.10;99.90;;;;;;4988803;28;20045;-93
2023/08/05 04:27:27;;;;;;;5.72;2.08;;;14.10;99.90;;;;;;4988095;28;20383;-93
2023/08/05 04:29:53;;;;;;;6.03;3.22;;;14.10;99.90;;;;;;4987843;28;20050;-93
2023/08/05 04:32:18;;;;;;;2.90;1.90;;;14.20;99.90;;;;;;4969919;28;20492;-92
2023/08/05 04:34:44;;;;;;;5.07;2.20;;;14.20;99.90;;;;;;4979181;28;20120;-93
2023/08/05 04:37:21;;;;;;;3.83;2.17;;;14.20;99.90;;;;;;4998862;28;20051;-93
2023/08/05 04:39:47;;;;;;;4.32;1.90;;;14.20;99.90;;;;;;4997758;28;20056;-92
2023/08/05 04:42:13;;;;;;;5.18;2.13;;;14.30;99.90;;;;;;4972785;28;20048;-93
2023/08/05 04:44:40;;;;;;;3.50;2.40;;;14.30;99.90;;;;;;5002499;28;20037;-93
2023/08/05 04:47:10;;;;;;;3.92;2.10;;;14.40;99.90;;;;;;4999432;28;20099;-92
2023/08/05 04:49:38;;;;;;;5.20;2.08;;;14.50;99.90;;;;;;4986450;28;20041;-93
2023/08/05 04:52:08;;;;;;;4.47;2.42;;;14.50;99.90;;;;;;4999061;28;20488;-92
2023/08/05 04:54:38;;;;;;;3.38;2.35;;;14.60;99.90;;;;;;4999416;28;20076;-93
2023/08/05 04:57:05;;;;;;;2.90;1.80;;;14.70;99.90;;;;;;4999633;28;20400;-93
2023/08/05 04:59:30;;;;;;;6.97;1.90;;;14.70;99.90;;;;;;4984319;28;20073;-94
2023/08/05 05:01:56;;;;;;;3.88;2.20;;;14.80;99.90;;;;;;4968654;28;20472;-93
2023/08/05 05:04:22;;;;;;;5.18;2.03;;;14.90;99.90;;;;;;4983129;28;20033;-93
2023/08/05 05:06:48;;;;;;;3.60;1.85;;;15.10;99.90;;;;;;4966398;28;20455;-90
2023/08/05 05:09:13;;;;;;;3.20;1.80;;;15.20;99.90;;;;;;5000360;28;20036;-93
2023/08/05 05:11:40;;;;;;;3.08;1.67;;;15.50;99.90;;;;;;5000958;28;20600;-93
2023/08/05 05:14:06;;;;;;;3.50;1.85;;;15.90;99.90;;;;;;4982014;28;20060;-93
2023/08/05 05:16:32;;;;;;;3.78;2.13;;;16.20;99.90;;;;;;4998828;28;20041;-94
2023/08/05 05:18:58;;;;;;;2.72;1.60;;;16.60;99.90;;;;;;4984103;28;20037;-94
2023/08/05 05:21:24;;;;;;;5.15;1.67;;;16.80;99.90;;;;;;4972285;28;20042;-93
2023/08/05 05:23:50;;;;;;;2.15;1.50;;;16.60;99.90;;;;;;4997786;28;20037;-94
2023/08/05 05:26:16;;;;;;;4.28;2.00;;;16.40;99.90;;;;;;5004125;28;20046;-94
2023/08/05 05:28:41;;;;;;;4.03;1.50;;;16.50;99.90;;;;;;4973517;28;20056;-93
2023/08/05 05:31:07;;;;;;;3.72;1.40;;;16.40;99.90;;;;;;5002645;28;20396;-94
2023/08/05 05:33:33;;;;;;;4.00;1.48;;;16.50;99.90;;;;;;4991836;28;20060;-94
2023/08/05 05:35:59;;;;;;;2.85;1.40;;;16.50;99.90;;;;;;4973959;28;20050;-93
2023/08/05 05:38:25;;;;;;;2.35;1.15;;;16.50;99.90;;;;;;5003012;28;20124;-93
2023/08/05 05:40:54;;;;;;;3.47;1.48;;;16.70;99.90;;;;;;4982631;28;20071;-94
2023/08/05 05:43:20;;;;;;;2.25;1.00;;;16.70;99.90;;;;;;4997571;28;20088;-93
2023/08/05 05:45:46;;;;;;;2.10;1.20;;;17.20;99.90;;;;;;4986694;28;20046;-93
2023/08/05 05:48:12;;;;;;;2.03;1.13;;;18.30;99.90;;;;;;5000416;28;20128;-94
2023/08/05 05:50:42;;;;;;;2.22;1.15;;;19.30;99.90;;;;;;4971487;28;20085;-94
2023/08/05 05:53:13;;;;;;;3.00;1.27;;;20.30;99.90;;;;;;4984650;28;20056;-94
2023/08/05 05:55:45;;;;;;;1.70;1.10;;;21.00;99.90;;;;;;4996685;28;20517;-94
2023/08/05 05:58:12;;;;;;;3.78;1.00;;;21.40;99.90;;;;;;4998639;28;20484;-93
2023/08/05 06:00:41;;;;;;;1.60;1.00;;;21.50;99.90;;;;;;4997048;28;20041;-93
2023/08/05 06:03:10;;;;;;;2.03;1.10;;;21.70;99.90;;;;;;4998209;28;20075;-94
2023/08/05 06:05:35;;;;;;;4.88;1.38;;;21.70;99.90;;;;;;4973714;28;20045;-94
2023/08/05 06:08:01;;;;;;;3.80;1.20;;;21.80;99.90;;;;;;4967618;28;20477;-93
2023/08/05 06:10:27;;;;;;;1.92;0.90;;;21.90;99.90;;;;;;4982836;28;21859;-93
2023/08/05 06:12:53;;;;;;;3.65;1.15;;;22.10;99.90;;;;;;4984962;28;20077;-95
2023/08/05 06:15:19;;;;;;;3.13;1.08;;;22.40;99.90;;;;;;4980125;28;20172;-94
2023/08/05 06:17:46;;;;;;;3.53;0.93;;;22.90;99.90;;;;;;5000348;28;20037;-93
2023/08/05 06:20:11;;;;;;;;;;;23.20;99.90;;;;;;5001665;28;20084;-93
2023/08/05 06:22:43;;;;;;;4.05;1.20;;;23.20;99.90;;;;;;4996938;28;19968;-94
2023/08/05 06:25:09;;;;;;;4.15;1.17;;;23.20;99.90;;;;;;5001270;28;20126;-94
2023/08/05 06:27:35;;;;;;;2.17;1.00;;;22.50;99.90;;;;;;5003015;28;20079;-94
2023/08/05 06:30:00;;;;;;;1.92;1.08;;;22.50;99.90;;;;;;4994745;28;20354;-94
2023/08/05 06:32:26;;;;;;;0.95;0.75;;;23.10;99.90;;;;;;4998079;28;20392;-95
2023/08/05 06:34:53;;;;;;;2.17;1.20;;;24.10;99.90;;;;;;5000205;28;20051;-95
2023/08/05 06:37:19;;;;;;;2.67;0.80;;;24.30;99.90;;;;;;4993619;28;20081;-94
2023/08/05 06:39:45;;;;;;;0.60;0.40;;;24.40;99.90;;;;;;5002767;28;20178;-94
2023/08/05 06:42:11;;;;;;;1.77;0.77;;;24.10;99.90;;;;;;4984614;28;20048;-94
2023/08/05 06:44:42;;;;;;;2.10;0.77;;;23.60;99.90;;;;;;4983680;28;20519;-94
2023/08/05 06:47:08;;;;;;;2.15;0.70;;;23.60;99.90;;;;;;4966273;28;20120;-94
2023/08/05 06:49:35;;;;;;;2.67;0.80;;;23.60;99.90;;;;;;4999513;28;20120;-94
2023/08/05 06:52:01;;;;;;;0.80;0.60;;;23.70;99.90;;;;;;5000611;28;20128;-94
2023/08/05 06:54:26;;;;;;;3.13;0.70;;;23.80;99.90;;;;;;4991951;28;20132;-94
2023/08/05 06:56:52;;;;;;;1.10;0.73;;;24.40;99.90;;;;;;4984113;28;20533;-94
2023/08/05 06:59:55;;;;;;;1.40;0.60;;;25.10;99.90;;;;;;5001481;28;20045;-92
2023/08/05 07:02:25;;;;;;;3.83;0.73;;;25.70;99.90;;;;;;4999403;28;20045;-94
2023/08/05 07:04:54;;;;;;;0.90;0.50;;;26.30;99.90;;;;;;4986136;28;20197;-93
2023/08/05 07:07:20;;;;;;;2.17;0.70;;;26.70;99.90;;;;;;4996816;28;20313;-96
2023/08/05 07:09:46;;;;;;;1.55;0.65;;;27.20;99.90;;;;;;4997720;28;20041;-96
2023/08/05 07:12:12;;;;;;;1.00;0.60;;;27.60;99.90;;;;;;4998909;28;20034;-96
2023/08/05 07:14:39;;;;;;;1.23;0.60;;;28.10;99.90;;;;;;4998115;28;20057;-94
2023/08/05 07:17:05;;;;;;;;;;;28.30;99.90;;;;;;4998991;28;20511;-95
2023/08/05 07:19:31;;;;;;;1.67;0.70;;;28.40;80.10;;;;;;4994147;28;20135;-94
2023/08/05 07:21:57;;;;;;;0.98;0.60;;;28.60;99.90;;;;;;4986744;28;20080;-95
2023/08/05 07:24:23;;;;;;;2.35;0.95;;;28.60;99.90;;;;;;4977692;28;20042;-94
2023/08/05 07:26:48;;;;;;;1.92;0.50;;;28.30;99.90;;;;;;4982244;28;20049;-92
2023/08/05 07:29:17;;;;;;;2.20;0.80;;;27.50;99.90;;;;;;4983064;28;20040;-93
2023/08/05 07:31:43;;;;;;;2.22;0.73;;;26.40;99.90;;;;;;5010322;28;20045;-91
2023/08/05 07:34:09;;;;;;;1.93;0.90;;;25.40;99.90;;;;;;4968101;28;20043;-87
2023/08/05 07:36:36;;;;;;;1.25;0.68;;;24.40;99.90;;;;;;5014026;28;20048;-88
2023/08/05 07:39:06;;;;;;;1.85;1.00;;;23.70;99.90;;;;;;4984827;28;20089;-89
2023/08/05 07:41:32;;;;;;;1.95;0.80;;;22.90;99.90;;;;;;4986793;28;20067;-88
2023/08/05 07:43:58;;;;;;;1.00;0.60;;;22.40;99.90;;;;;;4986202;28;20045;-89
2023/08/05 07:46:25;;;;;;;2.67;0.70;;;21.90;99.90;;;;;;4985339;28;20107;-90
2023/08/05 07:48:55;;;;;;;3.97;0.93;;;21.60;99.90;;;;;;5000819;28;20095;-88
2023/08/05 07:51:22;;;;;;;1.60;0.68;;;21.30;99.90;;;;;;4982005;28;20072;-87
2023/08/05 07:53:48;;;;;;;2.50;0.68;;;21.10;99.90;;;;;;4992627;28;20050;-91
2023/08/05 07:56:15;;;;;;;3.27;0.80;;;20.90;99.90;;;;;;4983453;28;20041;-89
2023/08/05 07:58:45;;;;;;;2.10;0.85;;;20.80;99.90;;;;;;4964384;28;20080;-89
2023/08/05 08:01:13;;;;;;;1.83;0.70;;;20.60;99.90;;;;;;5003357;28;20041;-88
2023/08/05 08:03:42;;;;;;;2.40;0.68;;;20.50;99.90;;;;;;4998760;28;20044;-90
2023/08/05 08:06:10;;;;;;;3.03;0.80;;;20.40;99.90;;;;;;4965757;28;20187;-87
2023/08/05 08:08:36;;;;;;;1.92;0.90;;;20.50;99.90;;;;;;5015947;28;20531;-90
2023/08/05 08:11:07;;;;;;;1.23;0.65;;;20.60;99.90;;;;;;4983138;28;20029;-90
2023/08/05 08:13:33;;;;;;;2.15;1.00;;;20.50;99.90;;;;;;4974714;28;20060;-91
2023/08/05 08:15:59;;;;;;;4.30;0.75;;;20.60;99.90;;;;;;4983314;28;20041;-90
2023/08/05 08:18:25;;;;;;;2.13;0.88;;;20.60;99.90;;;;;;4982637;28;20042;-89
2023/08/05 08:20:52;;;;;;;1.33;0.60;;;21.00;99.90;;;;;;4986726;28;20670;-88
2023/08/05 08:23:18;;;;;;;3.33;1.02;;;21.70;99.90;;;;;;4993895;28;20469;-88
2023/08/05 08:25:49;;;;;;;1.27;0.70;;;22.20;99.90;;;;;;4999239;28;20044;-93
2023/08/05 08:28:21;;;;;;;1.92;0.80;;;22.10;99.90;;;;;;4985490;28;20083;-93
2023/08/05 08:30:53;;;;;;;3.00;0.82;;;21.80;99.90;;;;;;4984849;28;20042;-95
2023/08/05 08:33:19;;;;;;;1.40;0.80;;;21.70;99.90;;;;;;4992868;28;20049;-94
2023/08/05 08:35:44;;;;;;;6.38;1.10;;;21.40;99.90;;;;;;4985662;28;20117;-93
2023/08/05 08:38:10;;;;;;;1.77;0.80;;;21.20;99.90;;;;;;4990498;28;20107;-96
2023/08/05 08:40:36;;;;;;;1.45;0.68;;;20.90;99.90;;;;;;4964598;28;20046;-96
2023/08/05 08:43:02;;;;;;;1.85;0.75;;;20.80;99.90;;;;;;4968008;28;20076;-93
2023/08/05 08:45:33;;;;;;;1.57;0.70;;;20.70;99.90;;;;;;4987306;28;20050;-95
2023/08/05 08:48:00;;;;;;;2.83;0.70;;;20.70;99.90;;;;;;4986461;28;20030;-96
2023/08/05 08:50:27;;;;;;;2.58;1.17;;;20.50;99.90;;;;;;5004132;28;20044;-96
2023/08/05 08:52:57;;;;;;;1.55;0.75;;;20.40;99.90;;;;;;4994865;28;20038;-95
2023/08/05 08:55:25;;;;;;;2.60;0.80;;;20.50;99.90;;;;;;5003518;28;20104;-96
2023/08/05 08:57:51;;;;;;;2.83;1.00;;;20.60;99.90;;;;;;5005182;28;20029;-96
2023/08/05 09:00:17;;;;;;;2.80;0.93;;;21.20;99.90;;;;;;5007670;28;20033;-96
2023/08/05 09:02:43;;;;;;;1.33;0.80;;;21.00;99.90;;;;;;5000770;28;20452;-96
2023/08/05 09:05:10;;;;;;;2.38;0.80;;;21.10;99.90;;;;;;4998662;28;20076;-96
2023/08/05 09:07:37;;;;;;;2.33;1.13;;;21.00;99.90;;;;;;4993773;28;20061;-96
2023/08/05 09:10:04;;;;;;;1.23;0.70;;;21.00;99.90;;;;;;4992601;28;20041;-96
2023/08/05 09:12:31;;;;;;;1.23;0.68;;;21.20;99.90;;;;;;4967745;28;20042;-96
2023/08/05 09:14:57;;;;;;;;;;;21.40;99.90;;;;;;4983867;28;20052;-96
2023/08/05 09:17:23;;;;;;;0.93;0.70;;;21.50;99.90;;;;;;4999933;28;20356;-96
2023/08/05 09:19:49;;;;;;;2.03;0.70;;;21.50;99.90;;;;;;4992460;28;20041;-96
2023/08/05 09:22:48;;;;;;;1.23;0.70;;;21.40;99.90;;;;;;5005563;28;20111;-96
2023/08/05 09:25:29;;;;;;;2.25;0.80;;;21.20;99.90;;;;;;5014533;28;20132;-96
2023/08/05 09:28:00;;;;;;;1.63;0.82;;;21.10;99.90;;;;;;5032311;28;20049;-96
2023/08/05 09:33:04;;;;;;;2.63;0.77;;;21.60;99.90;;;;;;5691303;22;20049;-91
2023/08/05 09:35:30;;;;;;;2.78;0.80;;;21.70;99.90;;;;;;4999548;28;20479;-94
2023/08/05 09:37:56;;;;;;;0.68;0.60;;;21.80;99.90;;;;;;5010913;28;20101;-94
2023/08/05 09:40:32;;;;;;;2.60;0.68;;;22.00;99.90;;;;;;4996947;28;20491;-95
2023/08/05 09:42:59;;;;;;;2.22;0.80;;;22.30;99.90;;;;;;5011756;28;20042;-94
2023/08/05 09:45:27;;;;;;;1.58;0.77;;;22.50;99.90;;;;;;4995988;28;20492;-95
2023/08/05 09:48:10;;;;;;;1.48;0.80;;;22.70;99.90;;;;;;4979828;28;20084;-94
2023/08/05 09:50:40;;;;;;;2.97;0.80;;;22.80;99.90;;;;;;5011985;28;20033;-94
2023/08/05 09:53:14;;;;;;;1.23;0.70;;;23.00;99.90;;;;;;5009390;28;20048;-96
2023/08/05 09:55:39;;;;;;;1.23;0.85;;;22.70;99.90;;;;;;5028127;28;20041;-93
2023/08/05 09:58:09;;;;;;;1.50;0.60;;;22.70;99.90;;;;;;4995022;28;20048;-95
2023/08/05 10:00:41;;;;;;;1.02;0.70;;;22.60;99.90;;;;;;5008703;28;20033;-93
2023/08/05 10:03:13;;;;;;;1.02;0.40;;;22.90;99.90;;;;;;4997819;28;20045;-94
2023/08/05 10:05:45;;;;;;;2.35;0.57;;;23.10;99.90;;;;;;5010979;28;20155;-94
2023/08/05 10:08:15;;;;;;;1.27;0.57;;;23.20;99.90;;;;;;5007458;28;20038;-94
2023/08/05 10:10:42;;;;;;;2.40;0.70;;;23.30;99.90;;;;;;5005921;28;20033;-94
2023/08/05 10:13:17;;;;;;;1.25;0.60;;;23.30;99.90;;;;;;5010639;28;20052;-94
2023/08/05 10:15:48;;;;;;;1.58;0.93;;;23.40;99.90;;;;;;5007457;28;20404;-93
2023/08/05 10:18:17;;;;;;;1.90;0.80;;;23.40;99.90;;;;;;5008919;28;20053;-94
2023/08/05 10:20:48;;;;;;;2.42;0.93;;;23.30;99.90;;;;;;4993794;28;20123;-93
2023/08/05 10:23:14;;;;;;;2.03;0.90;;;23.30;99.90;;;;;;5005742;28;20041;-93
2023/08/05 10:25:59;;;;;;;5.07;0.98;;;23.40;99.90;;;;;;4996971;28;20124;-95
2023/08/05 10:28:25;;;;;;;1.02;0.70;;;23.40;99.90;;;;;;5009522;28;20040;-91
2023/08/05 10:30:53;;;;;;;1.38;0.82;;;23.20;99.90;;;;;;5009474;28;20033;-92
2023/08/05 10:33:20;;;;;;;0.95;0.50;;;23.00;99.90;;;;;;5006485;28;20045;-94
2023/08/05 10:35:48;;;;;;;1.02;0.60;;;22.60;99.90;;;;;;5003542;28;20034;-94
2023/08/05 10:38:23;;;;;;;2.80;0.70;;;22.30;99.90;;;;;;5002993;28;20468;-94
2023/08/05 10:41:00;;;;;;;1.70;0.80;;;22.10;99.90;;;;;;5005563;28;20532;-93
2023/08/05 10:43:35;;;;;;;1.25;0.70;;;21.90;99.90;;;;;;5007489;28;20044;-93
2023/08/05 10:46:09;;;;;;;1.58;0.70;;;22.00;99.90;;;;;;5013759;28;20040;-93
2023/08/05 10:48:41;;;;;;;2.15;0.60;;;22.10;99.90;;;;;;5003884;28;20046;-94
2023/08/05 10:51:23;;;;;;;3.63;0.68;;;22.20;99.90;;;;;;5007428;28;20099;-94
2023/08/05 10:53:55;;;;;;;1.20;0.80;;;22.30;99.90;;;;;;5003876;28;20051;-92
2023/08/05 10:56:29;;;;;;;2.90;0.80;;;22.20;99.90;;;;;;5007794;28;20080;-95
2023/08/05 10:58:55;;;;;;;1.42;0.70;;;22.20;99.90;;;;;;5011389;28;20048;-93
2023/08/05 11:01:21;;;;;;;1.10;0.50;;;22.30;99.90;;;;;;4978594;28;20033;-93
2023/08/05 11:03:52;;;;;;;2.22;0.50;;;22.50;99.90;;;;;;4998926;28;20542;-93
2023/08/05 11:06:25;;;;;;;1.33;0.60;;;22.50;99.90;;;;;;5014269;28;20033;-93
2023/08/05 11:09:02;;;;;;;0.75;0.55;;;22.60;99.90;;;;;;5014162;28;20040;-94
2023/08/05 11:11:46;;;;;;;0.85;0.60;;;22.50;99.90;;;;;;5034825;28;20034;-96
2023/08/05 11:14:13;;;;;;;1.15;0.60;;;22.50;99.90;;;;;;5035371;28;20055;-96
2023/08/05 11:16:59;;;;;;;2.40;0.90;;;22.60;99.90;;;;;;5034048;28;20088;-95
2023/08/05 11:19:28;;;;;;;1.48;0.60;;;22.60;99.90;;;;;;5035988;28;20044;-96
2023/08/05 11:21:58;;;;;;;1.63;0.82;;;22.80;99.90;;;;;;5032293;28;20049;-96
2023/08/05 11:24:42;;;;;;;1.38;0.65;;;22.90;99.90;;;;;;5035879;28;20120;-96
2023/08/05 11:27:08;;;;;;;1.33;0.75;;;23.30;99.90;;;;;;5005564;28;20040;-95
2023/08/05 11:30:12;;;;;;;1.35;0.50;;;22.70;99.90;;;;;;5017743;28;20045;-96
2023/08/05 11:32:56;;;;;;;6.28;0.88;;;22.50;99.90;;;;;;5014141;28;20046;-95
2023/08/05 11:35:24;;;;;;;2.03;0.80;;;22.60;99.90;;;;;;5017556;28;20049;-94
2023/08/05 11:37:54;;;;;;;1.55;0.70;;;22.70;99.90;;;;;;5013686;28;20037;-92
2023/08/05 11:40:22;;;;;;;1.65;0.88;;;22.50;99.90;;;;;;5016754;28;20317;-93
2023/08/05 11:43:42;;;;;;;;;;;;;;;;;;;;;
2023/08/05 11:46:49;;;;;;;1.50;0.70;;;22.40;99.90;;;;;;4993180;28;20069;-96
2023/08/05 11:49:36;;;;;;;2.70;0.90;;;22.80;99.90;;;;;;4976975;28;20118;-94
2023/08/05 11:52:21;;;;;;;1.55;0.80;;;23.00;99.90;;;;;;4979012;28;20039;-96
2023/08/05 12:01:34;;;;;;;1.40;0.88;;;22.60;99.90;;;;;;4855289;29;20128;-96
2023/08/05 12:04:11;;;;;;;1.50;0.70;;;22.30;99.90;;;;;;4970273;28;20065;-96
2023/08/05 12:06:48;;;;;;;1.48;0.73;;;22.10;99.90;;;;;;4994432;28;20045;-94
2023/08/05 12:09:14;;;;;;;0.93;0.70;;;21.90;99.90;;;;;;4999248;28;20049;-95
2023/08/05 12:11:47;;;;;;;3.53;0.93;;;21.70;99.90;;;;;;5001340;28;20095;-95
2023/08/05 12:14:13;;;;;;;1.20;0.98;;;21.60;99.90;;;;;;5026379;28;20476;-94
2023/08/05 12:16:46;;;;;;;1.52;0.85;;;21.50;99.90;;;;;;5000032;28;20052;-96
2023/08/05 12:19:12;;;;;;;2.53;0.75;;;21.20;99.90;;;;;;5007390;28;20476;-94
2023/08/05 12:21:45;;;;;;;1.60;0.82;;;21.00;99.90;;;;;;5013730;28;20040;-95
2023/08/05 12:24:11;;;;;;;2.17;1.15;;;20.90;99.90;;;;;;5009421;28;20041;-94
2023/08/05 12:26:39;;;;;;;1.80;0.75;;;20.80;99.90;;;;;;5014966;28;20464;-95
2023/08/05 12:29:05;;;;;;;4.43;1.30;;;20.80;99.90;;;;;;5010630;28;20108;-93
2023/08/05 12:31:32;;;;;;;2.05;1.17;;;20.70;99.90;;;;;;5016752;28;20796;-94
2023/08/05 12:34:02;;;;;;;1.63;0.90;;;20.70;99.90;;;;;;4984282;28;20053;-96
2023/08/05 12:36:31;;;;;;;2.05;0.93;;;20.80;99.90;;;;;;5011789;28;20052;-95
2023/08/05 12:39:01;;;;;;;4.22;1.13;;;20.80;99.90;;;;;;5010722;28;20037;-96
2023/08/05 12:41:27;;;;;;;1.98;1.00;;;20.90;99.90;;;;;;5028986;28;20025;-95
2023/08/05 12:43:59;;;;;;;1.65;0.95;;;20.80;99.90;;;;;;5037142;28;20094;-96
2023/08/05 12:46:28;;;;;;;1.48;1.10;;;20.80;99.90;;;;;;5016957;28;20049;-96
2023/08/05 12:48:54;;;;;;;4.97;1.30;;;20.70;99.90;;;;;;5018359;28;20473;-96
2023/08/05 12:51:21;;;;;;;2.13;1.20;;;20.60;99.90;;;;;;4993169;28;20056;-96
2023/08/05 12:53:47;;;;;;;;;;;20.50;99.90;;;;;;5001087;28;20040;-96
2023/08/05 12:56:14;;;;;;;2.72;1.70;;;20.50;99.90;;;;;;5020772;28;20015;-96
2023/08/05 12:58:43;;;;;;;;;;;20.50;99.90;;;;;;5013664;28;20116;-95
2023/08/05 13:01:19;;;;;;;1.60;1.20;;;20.40;99.90;;;;;;5025477;28;19917;-96
2023/08/05 13:03:45;;;;;;;3.60;1.45;;;20.40;99.90;;;;;;5019477;28;20124;-92
2023/08/05 13:06:15;;;;;;;2.22;1.67;;;20.40;99.90;;;;;;5024892;28;20068;-96